createdAt,value
2017-12-10T00:01:51.801Z,96656.80
2017-12-10T00:04:20.772Z,96656.66
2017-12-10T00:06:52.766Z,96660.47
2017-12-10T00:09:20.918Z,96663.39
2017-12-10T00:11:48.729Z,96656.37
2017-12-10T00:14:16.426Z,96653.19
2017-12-10T00:16:44.260Z,96648.73
2017-12-10T00:19:13.784Z,96644.12
2017-12-10T00:21:44.158Z,96644.94
2017-12-10T00:24:12.159Z,96647.30
2017-12-10T00:26:39.966Z,96644.30
2017-12-10T00:29:09.610Z,96647.84
2017-12-10T00:31:37.319Z,96646.51
2017-12-10T00:34:05.023Z,96643.10
2017-12-10T00:36:34.564Z,96648.00
2017-12-10T00:39:02.330Z,96647.86
2017-12-10T00:41:30.010Z,96639.68
2017-12-10T00:43:57.682Z,96637.98
2017-12-10T00:46:27.325Z,96627.11
2017-12-10T00:48:57.103Z,96617.47
2017-12-10T00:51:24.907Z,96617.03
2017-12-10T00:53:52.605Z,96624.04
2017-12-10T00:56:20.287Z,96615.21
2017-12-10T00:58:47.950Z,96612.00
2017-12-10T01:01:17.377Z,96604.58
2017-12-10T01:03:45.830Z,96598.55
2017-12-10T01:06:16.163Z,96595.05
2017-12-10T01:08:43.894Z,96593.13
2017-12-10T01:11:13.378Z,96587.72
2017-12-10T01:13:41.181Z,96587.58
2017-12-10T01:16:10.789Z,96600.07
2017-12-10T01:18:39.380Z,96592.62
2017-12-10T01:21:08.814Z,96588.33
2017-12-10T01:23:39.138Z,96585.48
2017-12-10T01:26:06.963Z,96584.73
2017-12-10T01:28:34.608Z,96581.73
2017-12-10T01:31:02.376Z,96587.09
2017-12-10T01:33:32.392Z,96579.18
2017-12-10T01:36:00.363Z,96577.95
2017-12-10T01:38:29.280Z,96575.15
2017-12-10T01:40:57.498Z,96564.80
2017-12-10T01:43:25.362Z,96558.59
2017-12-10T01:45:54.872Z,96557.39
2017-12-10T01:48:23.784Z,96559.02
2017-12-10T01:50:51.442Z,96555.27
2017-12-10T01:53:20.927Z,96550.70
2017-12-10T01:55:50.945Z,96552.61
2017-12-10T01:58:19.679Z,96548.00
2017-12-10T02:00:49.141Z,96548.06
2017-12-10T02:03:17.011Z,96538.41
2017-12-10T02:05:44.865Z,96528.30
2017-12-10T02:08:14.273Z,96523.97
2017-12-10T02:10:44.511Z,96520.88
2017-12-10T02:13:12.929Z,96508.24
2017-12-10T02:15:44.099Z,96501.08
2017-12-10T02:18:12.805Z,96488.80
2017-12-10T02:20:42.286Z,96481.73
2017-12-10T02:23:09.986Z,96470.05
2017-12-10T02:25:39.429Z,96465.52
2017-12-10T02:28:07.119Z,96465.08
2017-12-10T02:30:37.279Z,96459.23
2017-12-10T02:33:04.926Z,96453.70
2017-12-10T02:35:34.323Z,96449.96
2017-12-10T02:38:02.057Z,96438.48
2017-12-10T02:40:30.013Z,96436.44
2017-12-10T02:43:00.840Z,96431.53
2017-12-10T02:45:29.758Z,96423.16
2017-12-10T02:47:57.493Z,96425.02
2017-12-10T02:50:25.163Z,96420.72
2017-12-10T02:52:52.929Z,96416.80
2017-12-10T02:55:20.892Z,96404.24
2017-12-10T02:57:51.751Z,96405.41
2017-12-10T03:00:22.289Z,96399.63
2017-12-10T03:02:50.990Z,96397.78
2017-12-10T03:05:20.296Z,96393.31
2017-12-10T03:07:48.886Z,96376.62
2017-12-10T03:10:16.750Z,96381.44
2017-12-10T03:12:46.459Z,96373.49
2017-12-10T03:15:15.131Z,96365.23
2017-12-10T03:17:44.915Z,96360.64
2017-12-10T03:20:12.590Z,96355.25
2017-12-10T03:22:40.345Z,96351.14
2017-12-10T03:25:08.879Z,96345.13
2017-12-10T03:27:37.409Z,96344.13
2017-12-10T03:30:05.921Z,96334.86
2017-12-10T03:32:35.490Z,96331.59
2017-12-10T03:35:03.205Z,96330.39
2017-12-10T03:37:31.590Z,96330.33
2017-12-10T03:40:01.025Z,96314.00
2017-12-10T03:42:31.927Z,96313.02
2017-12-10T03:45:01.497Z,96314.56
2017-12-10T03:47:31.155Z,96302.89
2017-12-10T03:49:58.850Z,96297.41
2017-12-10T03:52:28.427Z,96297.65
2017-12-10T03:54:59.107Z,96296.53
2017-12-10T03:57:30.548Z,96290.39
2017-12-10T03:59:58.433Z,96286.22
2017-12-10T04:02:26.631Z,96286.98
2017-12-10T04:04:54.931Z,96280.83
2017-12-10T04:07:24.573Z,96286.17
2017-12-10T04:09:54.983Z,96285.29
2017-12-10T04:12:22.931Z,96287.41
2017-12-10T04:14:51.392Z,96289.56
2017-12-10T04:17:19.080Z,96283.17
2017-12-10T04:19:48.593Z,96288.87
2017-12-10T04:22:18.053Z,96279.18
2017-12-10T04:24:45.997Z,96276.89
2017-12-10T04:27:15.504Z,96269.23
2017-12-10T04:29:44.945Z,96276.14
2017-12-10T04:32:12.940Z,96268.41
2017-12-10T04:34:41.449Z,96266.41
2017-12-10T04:37:09.304Z,96253.25
2017-12-10T04:39:37.211Z,96251.31
2017-12-10T04:42:05.115Z,96253.22
2017-12-10T04:44:33.705Z,96244.97
2017-12-10T04:47:01.501Z,96254.17
2017-12-10T04:49:31.906Z,96245.13
2017-12-10T04:52:02.280Z,96233.59
2017-12-10T04:54:30.010Z,96224.94
2017-12-10T04:56:59.062Z,96213.33
2017-12-10T04:59:29.535Z,96207.30
2017-12-10T05:01:57.312Z,96202.41
2017-12-10T05:04:26.752Z,96194.61
2017-12-10T05:06:54.588Z,96186.73
2017-12-10T05:09:22.440Z,96190.44
2017-12-10T05:11:52.015Z,96187.57
2017-12-10T05:14:24.645Z,96181.75
2017-12-10T05:16:52.424Z,96177.60
2017-12-10T05:19:20.112Z,96176.58
2017-12-10T05:21:50.639Z,96169.83
2017-12-10T05:24:18.583Z,96156.86
2017-12-10T05:26:47.095Z,96149.93
2017-12-10T05:29:14.954Z,96145.59
2017-12-10T05:31:42.623Z,96139.38
2017-12-10T05:34:10.321Z,96125.00
2017-12-10T05:36:38.168Z,96119.75
2017-12-10T05:39:05.932Z,96118.28
2017-12-10T05:41:33.874Z,96117.91
2017-12-10T05:44:06.951Z,96113.67
2017-12-10T05:46:36.443Z,96115.86
2017-12-10T05:49:04.150Z,96111.20
2017-12-10T05:51:33.672Z,96107.67
2017-12-10T05:54:01.352Z,96115.67
2017-12-10T05:56:30.016Z,96113.15
2017-12-10T05:58:57.747Z,96112.84
2017-12-10T06:01:28.375Z,96111.48
2017-12-10T06:03:56.050Z,96103.69
2017-12-10T06:06:23.733Z,96094.97
2017-12-10T06:08:51.389Z,96087.46
2017-12-10T06:11:20.873Z,96091.98
2017-12-10T06:13:48.692Z,96094.03
2017-12-10T06:16:16.402Z,96079.14
2017-12-10T06:18:44.093Z,96075.19
2017-12-10T06:21:14.507Z,96073.07
2017-12-10T06:23:45.604Z,96075.48
2017-12-10T06:26:13.274Z,96072.14
2017-12-10T06:28:41.280Z,96064.09
2017-12-10T06:31:12.004Z,96055.89
2017-12-10T06:33:39.762Z,96056.27
2017-12-10T06:36:07.503Z,96047.53
2017-12-10T06:38:35.190Z,96034.81
2017-12-10T06:41:03.020Z,96029.42
2017-12-10T06:43:32.262Z,96026.59
2017-12-10T06:46:00.624Z,96020.34
2017-12-10T06:48:30.102Z,96011.72
2017-12-10T06:50:59.717Z,96008.38
2017-12-10T06:53:28.181Z,95995.50
2017-12-10T06:55:58.502Z,95985.81
2017-12-10T06:58:26.230Z,95983.59
2017-12-10T07:00:56.489Z,95973.79
2017-12-10T07:03:25.946Z,95976.45
2017-12-10T07:05:55.350Z,95963.16
2017-12-10T07:08:23.108Z,95961.42
2017-12-10T07:10:52.542Z,95948.97
2017-12-10T07:13:20.396Z,95940.78
2017-12-10T07:15:49.281Z,95929.32
2017-12-10T07:18:17.887Z,95919.41
2017-12-10T07:20:47.311Z,95906.61
2017-12-10T07:23:17.826Z,95901.41
2017-12-10T07:25:45.634Z,95893.91
2017-12-10T07:28:13.400Z,95894.59
2017-12-10T07:30:41.117Z,95905.97
2017-12-10T07:33:08.830Z,95871.59
2017-12-10T07:35:38.281Z,95862.34
2017-12-10T07:38:08.556Z,95855.38
2017-12-10T07:40:36.681Z,95848.39
2017-12-10T07:43:05.215Z,95842.77
2017-12-10T07:45:33.275Z,95830.22
2017-12-10T07:48:01.331Z,95808.61
2017-12-10T07:50:29.094Z,95797.06
2017-12-10T07:52:56.789Z,95778.63
2017-12-10T07:55:24.493Z,95780.16
2017-12-10T07:57:52.289Z,95775.56
2017-12-10T08:00:20.746Z,95764.91
2017-12-10T08:02:49.242Z,95764.53
2017-12-10T08:05:18.748Z,95753.19
2017-12-10T08:07:46.728Z,95738.75
2017-12-10T08:10:14.570Z,95723.52
2017-12-10T08:12:43.180Z,95715.60
2017-12-10T08:15:10.899Z,95703.97
2017-12-10T08:17:38.634Z,95701.64
2017-12-10T08:20:07.994Z,95702.80
2017-12-10T08:22:38.651Z,95703.28
2017-12-10T08:25:08.066Z,95696.06
2017-12-10T08:27:35.877Z,95682.80
2017-12-10T08:30:05.163Z,95679.23
2017-12-10T08:32:34.538Z,95664.13
2017-12-10T08:35:04.008Z,95658.80
2017-12-10T08:37:34.380Z,95642.77
2017-12-10T08:40:04.756Z,95643.53
2017-12-10T08:42:35.120Z,95637.69
2017-12-10T08:45:03.112Z,95638.91
2017-12-10T08:47:30.827Z,95621.09
2017-12-10T08:49:58.596Z,95604.93
2017-12-10T08:52:26.311Z,95594.48
2017-12-10T08:54:54.117Z,95582.51
2017-12-10T08:57:22.765Z,95574.48
2017-12-10T08:59:51.209Z,95566.03
2017-12-10T09:02:18.953Z,95556.63
2017-12-10T09:04:46.670Z,95527.73
2017-12-10T09:07:14.454Z,95519.13
2017-12-10T09:09:43.279Z,95509.19
2017-12-10T09:12:11.698Z,95494.39
2017-12-10T09:14:39.455Z,95474.88
2017-12-10T09:17:07.274Z,95466.02
2017-12-10T09:19:37.599Z,95445.52
2017-12-10T09:22:07.076Z,95447.61
2017-12-10T09:24:37.364Z,95436.59
2017-12-10T09:27:05.912Z,95427.98
2017-12-10T09:29:33.783Z,95401.98
2017-12-10T09:32:01.619Z,95392.17
2017-12-10T09:34:29.867Z,95387.00
2017-12-10T09:36:58.302Z,95368.55
2017-12-10T09:39:25.969Z,95349.19
2017-12-10T09:41:55.498Z,95356.34
2017-12-10T09:44:26.307Z,95358.13
2017-12-10T09:46:54.070Z,95344.63
2017-12-10T09:49:22.454Z,95339.41
2017-12-10T09:51:50.212Z,95341.94
2017-12-10T09:54:18.651Z,95335.83
2017-12-10T09:56:46.303Z,95316.03
2017-12-10T09:59:15.688Z,95290.86
2017-12-10T10:01:43.376Z,95285.95
2017-12-10T10:04:11.103Z,95276.95
2017-12-10T10:06:40.760Z,95264.22
2017-12-10T10:09:08.610Z,95254.36
2017-12-10T10:11:39.840Z,95232.48
2017-12-10T10:14:07.664Z,95217.16
2017-12-10T10:16:37.277Z,95221.67
2017-12-10T10:19:05.069Z,95223.67
2017-12-10T10:21:33.485Z,95208.73
2017-12-10T10:24:02.930Z,95190.01
2017-12-10T10:26:32.279Z,95166.33
2017-12-10T10:29:01.920Z,95168.75
2017-12-10T10:31:30.385Z,95152.13
2017-12-10T10:33:58.142Z,95132.45
2017-12-10T10:36:26.644Z,95115.81
2017-12-10T10:38:54.499Z,95127.05
2017-12-10T10:41:24.859Z,95113.78
2017-12-10T10:43:52.612Z,95101.31
2017-12-10T10:46:22.039Z,95090.08
2017-12-10T10:48:49.949Z,95081.73
2017-12-10T10:51:17.655Z,95070.51
2017-12-10T10:53:48.849Z,95051.78
2017-12-10T10:56:16.701Z,95039.34
2017-12-10T10:58:45.247Z,95031.87
2017-12-10T11:01:13.117Z,95029.03
2017-12-10T11:03:41.701Z,95016.16
2017-12-10T11:06:11.114Z,94992.92
2017-12-10T11:08:38.889Z,94975.53
2017-12-10T11:11:06.557Z,94970.61
2017-12-10T11:13:35.962Z,94963.23
2017-12-10T11:16:05.684Z,94951.27
2017-12-10T11:18:34.242Z,94935.44
2017-12-10T11:21:02.039Z,94923.68
2017-12-10T11:23:32.955Z,94895.83
2017-12-10T11:26:02.612Z,94881.70
2017-12-10T11:28:32.775Z,94863.44
2017-12-10T11:31:03.112Z,94859.39
2017-12-10T11:33:32.803Z,94850.28
2017-12-10T11:36:02.259Z,94844.04
2017-12-10T11:38:30.230Z,94838.69
2017-12-10T11:40:59.646Z,94828.81
2017-12-10T11:43:27.381Z,94806.84
2017-12-10T11:45:55.338Z,94806.47
2017-12-10T11:48:24.787Z,94796.09
2017-12-10T11:50:52.612Z,94805.59
2017-12-10T11:53:22.972Z,94793.18
2017-12-10T11:55:53.275Z,94791.98
2017-12-10T11:58:21.025Z,94798.65
2017-12-10T12:00:48.804Z,94781.66
2017-12-10T12:03:18.241Z,94780.86
2017-12-10T12:05:46.004Z,94782.95
2017-12-10T12:08:15.442Z,94770.08
2017-12-10T12:10:43.339Z,94760.17
2017-12-10T12:13:11.029Z,94721.59
2017-12-10T12:15:40.456Z,94718.31
2017-12-10T12:18:09.016Z,94721.31
2017-12-10T12:20:37.640Z,94703.95
2017-12-10T12:23:08.003Z,94690.66
2017-12-10T12:25:35.790Z,94694.89
2017-12-10T12:28:05.245Z,94670.39
2017-12-10T12:30:35.633Z,94665.42
2017-12-10T12:33:05.505Z,94663.38
2017-12-10T12:35:33.366Z,94656.28
2017-12-10T12:38:04.310Z,94625.51
2017-12-10T12:40:34.160Z,94613.13
2017-12-10T12:43:03.450Z,94609.77
2017-12-10T12:45:33.364Z,94597.31
2017-12-10T12:48:01.056Z,94592.19
2017-12-10T12:50:29.530Z,94574.27
2017-12-10T12:52:58.026Z,94576.50
2017-12-10T12:55:28.600Z,94579.44
2017-12-10T12:57:56.335Z,94556.47
2017-12-10T13:00:26.098Z,94542.17
2017-12-10T13:02:53.822Z,94540.36
2017-12-10T13:05:22.512Z,94535.72
2017-12-10T13:07:50.194Z,94521.89
2017-12-10T13:10:18.716Z,94522.58
2017-12-10T13:12:46.531Z,94507.16
2017-12-10T13:15:14.206Z,94500.48
2017-12-10T13:17:42.655Z,94495.91
2017-12-10T13:20:10.398Z,94500.42
2017-12-10T13:22:38.492Z,94484.34
2017-12-10T13:25:08.812Z,94481.42
2017-12-10T13:27:37.306Z,94475.13
2017-12-10T13:30:06.735Z,94479.30
2017-12-10T13:32:37.979Z,94478.03
2017-12-10T13:35:08.277Z,94472.22
2017-12-10T13:37:36.021Z,94456.52
2017-12-10T13:40:06.293Z,94454.48
2017-12-10T13:42:34.054Z,94441.23
2017-12-10T13:45:01.815Z,94438.77
2017-12-10T13:47:29.576Z,94433.86
2017-12-10T13:49:59.018Z,94425.91
2017-12-10T13:52:26.750Z,94420.06
2017-12-10T13:54:57.178Z,94408.08
2017-12-10T13:57:25.030Z,94406.09
2017-12-10T13:59:52.804Z,94420.97
2017-12-10T14:02:22.022Z,94411.85
2017-12-10T14:04:52.339Z,94406.84
2017-12-10T14:07:21.796Z,94412.23
2017-12-10T14:09:49.604Z,94409.39
2017-12-10T14:12:19.093Z,94416.84
2017-12-10T14:14:46.894Z,94410.23
2017-12-10T14:17:14.898Z,94405.27
2017-12-10T14:19:43.657Z,94412.30
2017-12-10T14:22:11.327Z,94405.66
2017-12-10T14:24:39.054Z,94405.30
2017-12-10T14:27:06.850Z,94407.85
2017-12-10T14:29:34.622Z,94404.16
2017-12-10T14:32:03.954Z,94403.39
2017-12-10T14:34:31.821Z,94404.25
2017-12-10T14:37:00.307Z,94409.23
2017-12-10T14:39:28.054Z,94415.89
2017-12-10T14:41:55.838Z,94405.57
2017-12-10T14:44:23.615Z,94409.77
2017-12-10T14:46:53.199Z,94413.52
2017-12-10T14:49:21.994Z,94421.42
2017-12-10T14:51:51.414Z,94438.86
2017-12-10T14:54:19.274Z,94445.53
2017-12-10T14:56:47.016Z,94448.87
2017-12-10T14:59:16.431Z,94440.65
2017-12-10T15:01:46.032Z,94451.83
2017-12-10T15:04:16.970Z,94435.71
2017-12-10T15:06:46.664Z,94421.66
2017-12-10T15:09:14.545Z,94419.73
2017-12-10T15:11:43.049Z,94422.66
2017-12-10T15:14:12.648Z,94424.28
2017-12-10T15:16:41.469Z,94431.73
2017-12-10T15:19:09.186Z,94433.81
2017-12-10T15:21:38.919Z,94435.09
2017-12-10T15:24:07.411Z,94437.17
2017-12-10T15:26:35.169Z,94433.05
2017-12-10T15:29:04.872Z,94443.44
2017-12-10T15:31:34.355Z,94450.57
2017-12-10T15:34:03.151Z,94470.52
2017-12-10T15:36:31.269Z,94457.77
2017-12-10T15:39:00.258Z,94456.17
2017-12-10T15:41:28.020Z,94457.88
2017-12-10T15:43:58.369Z,94451.26
2017-12-10T15:46:26.102Z,94467.06
2017-12-10T15:48:53.972Z,94460.91
2017-12-10T15:51:21.639Z,94463.43
2017-12-10T15:53:50.146Z,94459.30
2017-12-10T15:56:20.423Z,94465.17
2017-12-10T15:58:48.619Z,94477.64
2017-12-10T16:01:18.117Z,94473.96
2017-12-10T16:03:48.486Z,94486.48
2017-12-10T16:06:18.919Z,94484.45
2017-12-10T16:08:48.368Z,94485.73
2017-12-10T16:11:16.220Z,94486.17
2017-12-10T16:13:46.537Z,94489.49
2017-12-10T16:16:16.157Z,94483.27
2017-12-10T16:18:45.538Z,94483.75
2017-12-10T16:21:13.527Z,94479.23
2017-12-10T16:23:41.489Z,94467.62
2017-12-10T16:26:09.179Z,94468.89
2017-12-10T16:28:36.865Z,94474.72
2017-12-10T16:31:04.792Z,94473.12
2017-12-10T16:33:32.647Z,94472.74
2017-12-10T16:36:01.238Z,94480.64
2017-12-10T16:38:29.075Z,94481.08
2017-12-10T16:40:59.369Z,94484.01
2017-12-10T16:43:29.809Z,94491.09
2017-12-10T16:45:57.711Z,94496.09
2017-12-10T16:48:26.635Z,94488.62
2017-12-10T16:50:54.420Z,94489.50
2017-12-10T16:53:23.243Z,94484.59
2017-12-10T16:55:52.970Z,94477.13
2017-12-10T16:58:21.077Z,94480.89
2017-12-10T17:00:49.052Z,94472.63
2017-12-10T17:03:16.945Z,94467.64
2017-12-10T17:05:44.806Z,94476.80
2017-12-10T17:08:13.679Z,94480.95
2017-12-10T17:10:41.759Z,94483.86
2017-12-10T17:13:11.345Z,94484.70
2017-12-10T17:15:40.933Z,94487.62
2017-12-10T17:18:09.746Z,94494.28
2017-12-10T17:20:37.541Z,94490.98
2017-12-10T17:23:05.545Z,94486.42
2017-12-10T17:25:33.484Z,94483.96
2017-12-10T17:28:05.485Z,94491.45
2017-12-10T17:30:35.117Z,94492.72
2017-12-10T17:33:03.791Z,94494.83
2017-12-10T17:35:31.824Z,94489.84
2017-12-10T17:37:59.814Z,94498.19
2017-12-10T17:40:27.768Z,94491.56
2017-12-10T17:42:57.328Z,94485.77
2017-12-10T17:45:26.884Z,94487.89
2017-12-10T17:47:54.861Z,94488.77
2017-12-10T17:50:23.458Z,94480.08
2017-12-10T17:52:51.386Z,94483.84
2017-12-10T17:55:19.358Z,94486.34
2017-12-10T17:57:47.157Z,94490.95
2017-12-10T18:00:15.011Z,94495.89
2017-12-10T18:02:42.833Z,94502.58
2017-12-10T18:05:11.072Z,94500.52
2017-12-10T18:07:39.774Z,94509.37
2017-12-10T18:10:09.334Z,94509.96
2017-12-10T18:12:37.405Z,94512.27
2017-12-10T18:15:05.332Z,94505.73
2017-12-10T18:17:33.407Z,94507.11
2017-12-10T18:20:03.010Z,94514.64
2017-12-10T18:22:32.610Z,94506.79
2017-12-10T18:25:03.216Z,94503.94
2017-12-10T18:27:32.849Z,94517.28
2017-12-10T18:30:02.530Z,94499.45
2017-12-10T18:32:32.179Z,94497.02
2017-12-10T18:35:00.258Z,94490.34
2017-12-10T18:37:28.628Z,94491.22
2017-12-10T18:39:56.603Z,94487.06
2017-12-10T18:42:25.262Z,94489.56
2017-12-10T18:44:55.575Z,94485.80
2017-12-10T18:47:27.013Z,94483.72
2017-12-10T18:49:55.392Z,94492.06
2017-12-10T18:52:27.075Z,94496.64
2017-12-10T18:54:56.439Z,94498.73
2017-12-10T18:57:25.679Z,94499.59
2017-12-10T18:59:55.970Z,94498.77
2017-12-10T19:02:24.633Z,94492.92
2017-12-10T19:04:55.177Z,94489.23
2017-12-10T19:07:36.268Z,94495.09
2017-12-10T19:10:07.401Z,94493.02
2017-12-10T19:12:36.589Z,94501.77
2017-12-10T19:15:05.086Z,94500.92
2017-12-10T19:17:34.410Z,94500.90
2017-12-10T19:20:16.712Z,94502.97
2017-12-10T19:22:45.478Z,94510.05
2017-12-10T19:25:14.382Z,94507.55
2017-12-10T19:27:48.173Z,94513.78
2017-12-10T19:30:17.984Z,94520.05
2017-12-10T19:32:46.546Z,94515.04
2017-12-10T19:35:15.853Z,94511.66
2017-12-10T19:37:45.870Z,94521.28
2017-12-10T19:40:14.577Z,94518.78
2017-12-10T19:42:45.027Z,94530.06
2017-12-10T19:45:13.927Z,94513.31
2017-12-10T19:47:42.705Z,94519.17
2017-12-10T19:50:11.796Z,94519.58
2017-12-10T19:52:42.033Z,94519.16
2017-12-10T19:55:10.731Z,94520.81
2017-12-10T19:57:41.572Z,94529.16
2017-12-10T20:00:11.198Z,94524.54
2017-12-10T20:02:39.635Z,94530.78
2017-12-10T20:05:08.969Z,94542.05
2017-12-10T20:07:38.406Z,94543.69
2017-12-10T20:10:07.249Z,94539.92
2017-12-10T20:12:37.943Z,94545.38
2017-12-10T20:15:07.730Z,94547.88
2017-12-10T20:20:17.320Z,94558.72
2017-12-10T20:22:47.698Z,94559.14
2017-12-10T20:25:17.186Z,94559.98
2017-12-10T20:27:45.549Z,94559.94
2017-12-10T20:30:14.710Z,94560.34
2017-12-10T20:32:43.544Z,94557.41
2017-12-10T20:35:13.153Z,94564.89
2017-12-10T20:37:43.066Z,94550.70
2017-12-10T20:40:27.795Z,94550.70
2017-12-10T20:42:56.742Z,94551.09
2017-12-10T20:45:27.020Z,94546.95
2017-12-10T20:47:57.972Z,94532.34
2017-12-10T20:50:29.238Z,94527.77
2017-12-10T20:52:59.874Z,94533.25
2017-12-10T20:55:30.068Z,94515.70
2017-12-10T20:58:00.949Z,94519.05
2017-12-10T21:00:32.808Z,94516.13
2017-12-10T21:03:04.540Z,94515.73
2017-12-10T21:05:32.747Z,94505.70
2017-12-10T21:08:05.293Z,94508.98
2017-12-10T21:10:33.497Z,94500.19
2017-12-10T21:13:05.365Z,94491.83
2017-12-10T21:15:34.217Z,94500.15
2017-12-10T21:18:03.135Z,94506.41
2017-12-10T21:20:33.375Z,94500.58
2017-12-10T21:23:03.770Z,94496.78
2017-12-10T21:25:31.861Z,94491.81
2017-12-10T21:28:02.306Z,94483.08
2017-12-10T21:30:30.587Z,94487.28
2017-12-10T21:32:58.866Z,94486.87
2017-12-10T21:35:29.493Z,94483.50
2017-12-10T21:37:57.975Z,94482.65
2017-12-10T21:40:28.008Z,94481.45
2017-12-10T21:42:59.076Z,94478.53
2017-12-10T21:45:29.072Z,94475.60
2017-12-10T21:47:59.652Z,94463.50
2017-12-10T21:50:27.767Z,94468.52
2017-12-10T21:52:55.738Z,94473.13
2017-12-10T21:55:23.710Z,94466.44
2017-12-10T21:57:51.580Z,94456.02
2017-12-10T22:00:21.188Z,94450.16
2017-12-10T22:02:51.069Z,94460.61
2017-12-10T22:05:20.689Z,94451.38
2017-12-10T22:07:50.280Z,94446.37
2017-12-10T22:10:18.313Z,94455.58
2017-12-10T22:12:46.168Z,94448.48
2017-12-10T22:15:14.190Z,94443.07
2017-12-10T22:17:42.208Z,94435.12
2017-12-10T22:20:14.910Z,94431.36
2017-12-10T22:22:44.413Z,94429.64
2017-12-10T22:25:15.441Z,94424.58
2017-12-10T22:27:43.412Z,94405.29
2017-12-10T22:30:11.398Z,94406.09
2017-12-10T22:32:39.466Z,94388.38
2017-12-10T22:35:07.443Z,94382.09
2017-12-10T22:37:35.412Z,94372.89
2017-12-10T22:40:09.737Z,94375.02
2017-12-10T22:42:37.974Z,94373.41
2017-12-10T22:45:06.183Z,94382.23
2017-12-10T22:47:35.677Z,94397.66
2017-12-10T22:50:03.760Z,94404.38
2017-12-10T22:52:31.734Z,94398.49
2017-12-10T22:54:59.719Z,94407.28
2017-12-10T22:57:29.784Z,94415.27
2017-12-10T22:59:57.808Z,94428.25
2017-12-10T23:02:25.775Z,94424.95
2017-12-10T23:04:55.338Z,94362.31
2017-12-10T23:07:25.911Z,94444.72
2017-12-10T23:09:53.892Z,94378.70
2017-12-10T23:12:21.837Z,94409.68
2017-12-10T23:14:50.352Z,94423.03
2017-12-10T23:17:20.025Z,94436.84
2017-12-10T23:19:48.034Z,94419.31
2017-12-10T23:22:17.851Z,94408.92
2017-12-10T23:24:47.462Z,94418.12
2017-12-10T23:27:15.598Z,94438.19
2017-12-10T23:29:43.613Z,94429.00
2017-12-10T23:32:12.097Z,94425.26
2017-12-10T23:34:40.097Z,94431.13
2017-12-10T23:37:08.036Z,94435.34
2017-12-10T23:39:37.512Z,94434.09
2017-12-10T23:42:05.725Z,94427.84
2017-12-10T23:44:33.798Z,94430.80
2017-12-10T23:47:01.675Z,94422.03
2017-12-10T23:49:29.754Z,94424.55
2017-12-10T23:51:57.812Z,94414.95
2017-12-10T23:54:25.705Z,94407.00
2017-12-10T23:56:55.400Z,94379.47
2017-12-10T23:59:23.394Z,94367.78
